Time;durP1;ratioP1;P1;durP2;ratioP2;P2;SDS_P1;SDS_P2;PMS_P1;PMS_P2;Temp;Humidity;BMP_temperature;BMP_pressure;BME280_temperature;BME280_humidity;BME280_pressure;Samples;Min_cycle;Max_cycle;Signal;HPM_P1;HPM_P2
2022/11/10 00:00:49;;;;;;;28.73;4.15;;;9.10;99.90;;;;;;5056273;28;20048;-74
2022/11/10 00:03:37;;;;;;;43.97;4.47;;;9.10;99.90;;;;;;5055427;28;20376;-73
2022/11/10 00:06:23;;;;;;;;;;;9.10;99.90;;;;;;5056583;28;20463;-74
2022/11/10 00:09:09;;;;;;;36.30;3.40;;;9.10;99.90;;;;;;5055128;28;19931;-75
2022/11/10 00:11:55;;;;;;;38.78;4.40;;;9.10;99.90;;;;;;5056759;28;20040;-75
2022/11/10 00:17:46;;;;;;;31.50;3.75;;;10.20;99.90;;;;;;5056198;28;20048;-76
2022/11/10 00:20:32;;;;;;;33.63;3.90;;;9.50;99.90;;;;;;5055507;28;20053;-77
2022/11/10 00:23:18;;;;;;;39.55;3.97;;;10.20;99.90;;;;;;5054161;28;20045;-76
2022/11/10 00:26:11;;;;;;;46.38;4.00;;;9.20;99.90;;;;;;5055982;28;20048;-76
2022/11/10 00:28:57;;;;;;;34.53;3.78;;;9.20;99.90;;;;;;5055010;28;20207;-75
2022/11/10 00:31:42;;;;;;;31.63;3.53;;;9.30;99.90;;;;;;5055364;28;20360;-76
2022/11/10 00:34:28;;;;;;;34.15;3.55;;;9.30;99.90;;;;;;5054888;28;20102;-75
2022/11/10 00:37:15;;;;;;;35.17;4.43;;;9.70;99.90;;;;;;5054499;28;20041;-76
2022/11/10 00:40:01;;;;;;;35.13;4.05;;;9.40;99.90;;;;;;5055542;28;20041;-73
2022/11/10 00:42:47;;;;;;;35.47;4.28;;;10.30;99.90;;;;;;5054376;28;20492;-74
2022/11/10 00:45:33;;;;;;;38.10;4.20;;;10.30;99.90;;;;;;5055756;28;20044;-76
2022/11/10 00:48:18;;;;;;;33.08;3.83;;;9.40;99.90;;;;;;5055591;28;20040;-75
2022/11/10 00:51:05;;;;;;;34.47;3.67;;;9.40;99.90;;;;;;5055520;28;20037;-75
2022/11/10 00:53:51;;;;;;;42.10;3.95;;;9.40;99.90;;;;;;5050926;28;20050;-74
2022/11/10 00:56:37;;;;;;;31.02;3.60;;;11.00;99.90;;;;;;5034562;28;20044;-75
2022/11/10 00:59:23;;;;;;;32.75;3.88;;;9.90;99.90;;;;;;5035229;28;20376;-74
2022/11/10 01:02:09;;;;;;;41.50;4.28;;;9.40;99.90;;;;;;5034749;28;20060;-77
2022/11/10 01:04:54;;;;;;;34.10;3.78;;;9.40;99.90;;;;;;5020971;28;20048;-75
2022/11/10 01:07:41;;;;;;;39.45;4.00;;;9.50;99.90;;;;;;5034996;28;20041;-76
2022/11/10 01:10:27;;;;;;;35.83;3.42;;;10.40;99.90;;;;;;5034172;28;20380;-75
2022/11/10 01:13:13;;;;;;;47.30;4.18;;;9.50;99.90;;;;;;5035248;28;20372;-74
2022/11/10 01:16:11;;;;;;;32.65;3.67;;;10.50;99.90;;;;;;5034107;28;20049;-76
2022/11/10 01:19:00;;;;;;;38.35;4.20;;;10.40;99.90;;;;;;5020788;28;20048;-76
2022/11/10 01:21:48;;;;;;;50.65;4.30;;;9.60;99.90;;;;;;5035081;28;20045;-77
2022/11/10 01:24:34;;;;;;;41.97;4.13;;;9.60;99.90;;;;;;5034873;28;20041;-76
2022/11/10 01:27:20;;;;;;;40.28;4.20;;;9.80;99.90;;;;;;5020324;28;20034;-74
2022/11/10 01:30:06;;;;;;;34.65;3.65;;;9.60;99.90;;;;;;5033925;28;20360;-76
2022/11/10 01:32:54;;;;;;;37.85;4.18;;;9.60;99.90;;;;;;5034709;28;20164;-75
2022/11/10 01:35:40;;;;;;;40.30;3.42;;;11.30;99.90;;;;;;5019527;28;20038;-74
2022/11/10 01:38:28;;;;;;;32.88;3.75;;;9.70;99.90;;;;;;5035139;28;20049;-75
2022/11/10 01:41:14;;;;;;;31.35;3.53;;;11.20;99.90;;;;;;5035142;28;20060;-76
2022/11/10 01:44:35;;;;;;;33.78;3.90;;;9.50;99.90;;;;;;5033647;28;20041;-74
2022/11/10 01:47:21;;;;;;;39.05;4.13;;;9.70;99.90;;;;;;4995765;28;20373;-74
2022/11/10 01:50:07;;;;;;;43.33;3.33;;;9.70;99.90;;;;;;5033568;28;20042;-74
2022/11/10 01:52:58;;;;;;;37.03;3.30;;;9.70;99.90;;;;;;5034953;28;20048;-75
2022/11/10 01:55:46;;;;;;;46.30;3.80;;;9.70;99.90;;;;;;5033507;28;20064;-76
2022/11/10 01:58:38;;;;;;;41.95;4.07;;;10.60;99.90;;;;;;5034768;28;20038;-74
2022/11/10 02:01:24;;;;;;;48.50;4.05;;;9.60;99.90;;;;;;5034669;28;20045;-77
2022/11/10 02:04:14;;;;;;;30.25;3.40;;;9.60;99.90;;;;;;5016025;28;20484;-75
2022/11/10 02:07:00;;;;;;;37.72;4.18;;;10.50;99.90;;;;;;5034324;28;20052;-75
2022/11/10 02:09:46;;;;;;;37.53;3.47;;;9.60;99.90;;;;;;5033380;28;20491;-76
2022/11/10 02:12:38;;;;;;;32.40;3.53;;;9.50;99.90;;;;;;5034619;28;20349;-75
2022/11/10 02:15:25;;;;;;;35.65;3.60;;;9.50;99.90;;;;;;5033353;28;20053;-75
2022/11/10 02:18:11;;;;;;;43.85;3.65;;;9.50;99.90;;;;;;5034520;28;20464;-76
2022/11/10 02:20:57;;;;;;;49.30;3.88;;;9.60;99.90;;;;;;5034329;28;20049;-75
2022/11/10 02:23:52;;;;;;;51.17;4.28;;;9.50;99.90;;;;;;5033388;28;20464;-75
2022/11/10 02:27:04;;;;;;;38.38;3.90;;;9.40;99.90;;;;;;5034454;28;20060;-75
2022/11/10 02:29:50;;;;;;;39.13;3.50;;;9.50;99.90;;;;;;5033501;28;20052;-75
2022/11/10 02:32:36;;;;;;;44.33;3.42;;;9.40;99.90;;;;;;5017016;28;20045;-74
2022/11/10 02:35:22;;;;;;;53.65;3.83;;;9.80;99.90;;;;;;5033000;28;20041;-74
2022/11/10 02:38:08;;;;;;;51.13;3.72;;;9.50;99.90;;;;;;5034501;28;20045;-77
2022/11/10 02:40:53;;;;;;;36.60;3.75;;;9.50;99.90;;;;;;5019793;28;20056;-76
2022/11/10 02:43:40;;;;;;;39.33;3.38;;;10.60;99.90;;;;;;5001976;28;20502;-78
2022/11/10 02:46:25;;;;;;;45.45;3.92;;;9.40;99.90;;;;;;5034051;28;20053;-77
2022/11/10 02:49:11;;;;;;;48.20;3.60;;;10.10;99.90;;;;;;5032983;28;20052;-75
2022/11/10 02:51:57;;;;;;;43.30;3.75;;;9.40;99.90;;;;;;5034516;28;20370;-75
2022/11/10 02:54:43;;;;;;;34.13;3.75;;;9.40;99.90;;;;;;5034151;28;20057;-76
2022/11/10 02:57:29;;;;;;;36.75;3.30;;;9.40;99.90;;;;;;5036589;28;20483;-76
2022/11/10 03:00:15;;;;;;;37.95;3.67;;;9.70;99.90;;;;;;5020076;28;20068;-76
2022/11/10 03:03:02;;;;;;;43.08;4.05;;;9.40;99.90;;;;;;5036548;28;20042;-75
2022/11/10 03:05:48;;;;;;;45.55;3.63;;;9.40;99.90;;;;;;5037743;28;20038;-76
2022/11/10 03:08:34;;;;;;;42.45;3.72;;;9.40;99.90;;;;;;5020073;28;20046;-75
2022/11/10 03:11:20;;;;;;;45.83;4.10;;;9.40;99.90;;;;;;5037674;28;20041;-76
2022/11/10 03:14:06;;;;;;;43.13;3.00;;;9.90;99.90;;;;;;5037445;28;20049;-74
2022/11/10 03:16:52;;;;;;;39.25;3.45;;;9.40;99.90;;;;;;5036156;28;20038;-75
2022/11/10 03:19:38;;;;;;;39.90;2.95;;;9.40;99.90;;;;;;5037710;28;20053;-75
2022/11/10 03:22:24;;;;;;;40.60;3.38;;;10.30;99.90;;;;;;5036032;28;20064;-77
2022/11/10 03:25:10;;;;;;;47.63;3.75;;;10.40;99.90;;;;;;5037272;28;20050;-76
2022/11/10 03:27:56;;;;;;;39.13;3.90;;;9.30;99.90;;;;;;5037327;28;20345;-75
2022/11/10 03:30:42;;;;;;;38.80;3.47;;;9.70;99.90;;;;;;5035925;28;20065;-74
2022/11/10 03:33:28;;;;;;;47.85;3.72;;;9.40;99.90;;;;;;5036928;28;20041;-75
2022/11/10 03:36:14;;;;;;;33.88;3.47;;;9.40;99.90;;;;;;5036102;28;20045;-75
2022/11/10 03:39:00;;;;;;;38.22;3.67;;;9.60;99.90;;;;;;5037134;28;20376;-75
2022/11/10 03:41:46;;;;;;;40.90;3.50;;;11.00;99.90;;;;;;5037037;28;20052;-76
2022/11/10 03:44:32;;;;;;;48.28;4.20;;;9.40;99.90;;;;;;5036893;28;20045;-76
2022/11/10 03:47:18;;;;;;;41.55;3.50;;;9.40;99.90;;;;;;5036682;28;20380;-77
2022/11/10 03:50:06;;;;;;;45.90;4.15;;;9.40;99.90;;;;;;5035488;28;20053;-76
2022/11/10 03:52:52;;;;;;;41.63;3.25;;;9.40;99.90;;;;;;5037178;28;20379;-77
2022/11/10 03:55:37;;;;;;;46.38;3.70;;;9.30;99.90;;;;;;5035656;28;20480;-75
2022/11/10 03:58:23;;;;;;;46.00;3.60;;;9.30;99.90;;;;;;5036629;28;20038;-76
2022/11/10 04:01:09;;;;;;;55.58;4.45;;;9.30;99.90;;;;;;5036704;28;20045;-77
2022/11/10 04:03:55;;;;;;;32.85;3.35;;;9.30;99.90;;;;;;5035375;28;20041;-77
2022/11/10 04:09:46;;;;;;;42.75;3.78;;;9.70;99.90;;;;;;5035009;28;20052;-75
2022/11/10 04:15:42;;;;;;;43.67;3.25;;;10.80;99.90;;;;;;5035508;28;20812;-76
2022/11/10 04:18:28;;;;;;;50.33;3.60;;;9.20;99.90;;;;;;5036155;28;20057;-76
2022/11/10 04:21:14;;;;;;;41.10;3.70;;;9.20;99.90;;;;;;5018711;28;20068;-74
2022/11/10 04:24:01;;;;;;;42.10;3.72;;;9.20;99.90;;;;;;5017549;28;20061;-76
2022/11/10 04:26:48;;;;;;;48.65;3.67;;;10.30;99.90;;;;;;5036446;28;20046;-75
2022/11/10 04:29:34;;;;;;;44.63;3.17;;;10.00;99.90;;;;;;5034793;28;20345;-76
2022/11/10 04:32:20;;;;;;;37.60;3.25;;;9.30;99.90;;;;;;5019038;28;20054;-76
2022/11/10 04:35:06;;;;;;;39.42;3.60;;;9.40;99.90;;;;;;5035818;28;20468;-75
2022/11/10 04:37:52;;;;;;;38.72;3.25;;;9.50;99.90;;;;;;5035708;28;20353;-76
2022/11/10 04:40:38;;;;;;;43.35;4.03;;;9.50;99.90;;;;;;5036053;28;20045;-76
2022/11/10 04:43:24;;;;;;;45.78;3.50;;;9.60;99.90;;;;;;5020256;28;20472;-74
2022/11/10 04:46:22;;;;;;;33.75;3.30;;;10.20;99.90;;;;;;5035625;28;20041;-74
2022/11/10 04:49:10;;;;;;;32.45;3.03;;;9.70;99.90;;;;;;5034699;28;20041;-77
2022/11/10 04:51:56;;;;;;;39.90;3.80;;;10.70;99.90;;;;;;5035742;28;20041;-77
2022/11/10 04:54:42;;;;;;;37.88;3.55;;;9.80;99.90;;;;;;5035204;28;20388;-76
2022/11/10 04:57:27;;;;;;;42.63;3.65;;;9.80;99.90;;;;;;5034183;28;20044;-74
2022/11/10 05:00:14;;;;;;;42.08;4.03;;;10.30;99.90;;;;;;5021057;28;20052;-74
2022/11/10 05:03:01;;;;;;;37.70;3.13;;;9.90;99.90;;;;;;5034099;28;20045;-77
2022/11/10 05:05:48;;;;;;;35.63;3.33;;;10.00;99.90;;;;;;5035874;28;20056;-74
2022/11/10 05:08:34;;;;;;;37.63;3.13;;;9.90;99.90;;;;;;5020912;28;20046;-74
2022/11/10 05:11:21;;;;;;;37.58;3.25;;;10.00;99.90;;;;;;5035396;28;20041;-74
2022/11/10 05:14:06;;;;;;;38.80;2.90;;;10.00;99.90;;;;;;5035298;28;20060;-77
2022/11/10 05:16:52;;;;;;;33.97;3.33;;;10.00;99.90;;;;;;5034100;28;20163;-76
2022/11/10 05:19:38;;;;;;;40.05;3.58;;;10.00;99.90;;;;;;5017586;28;20045;-77
2022/11/10 05:22:24;;;;;;;32.63;2.88;;;10.20;99.90;;;;;;5033820;28;20368;-77
2022/11/10 05:25:10;;;;;;;45.42;3.83;;;10.00;99.90;;;;;;5034920;28;20045;-76
2022/11/10 05:27:55;;;;;;;34.88;3.35;;;10.30;99.90;;;;;;5035157;28;20372;-75
2022/11/10 05:30:42;;;;;;;36.22;3.15;;;10.00;99.90;;;;;;5033780;28;20061;-75
2022/11/10 05:33:29;;;;;;;34.20;3.33;;;9.90;99.90;;;;;;5034990;28;20045;-77
2022/11/10 05:36:15;;;;;;;32.22;2.83;;;10.50;99.90;;;;;;5033687;28;20476;-74
2022/11/10 05:39:01;;;;;;;35.30;3.17;;;10.00;99.90;;;;;;5035418;28;20052;-76
2022/11/10 05:41:46;;;;;;;26.27;3.42;;;10.80;99.90;;;;;;5034941;28;20049;-76
2022/11/10 05:44:32;;;;;;;37.80;3.05;;;11.30;99.90;;;;;;5034872;28;20496;-76
2022/11/10 05:47:18;;;;;;;28.85;3.08;;;10.00;99.90;;;;;;5035053;28;20041;-74
2022/11/10 05:50:05;;;;;;;36.53;3.45;;;10.60;99.90;;;;;;5033453;28;20045;-73
2022/11/10 05:52:53;;;;;;;36.63;3.30;;;10.10;99.90;;;;;;5017408;28;20046;-74
2022/11/10 05:55:39;;;;;;;34.72;3.28;;;10.60;99.90;;;;;;5033342;28;20495;-74
2022/11/10 05:58:25;;;;;;;36.63;3.53;;;10.10;99.90;;;;;;5034787;28;20040;-74
2022/11/10 06:01:11;;;;;;;45.30;3.38;;;10.10;99.90;;;;;;5034832;28;20041;-74
2022/11/10 06:03:57;;;;;;;42.15;3.25;;;11.00;99.90;;;;;;5016247;28;20483;-76
2022/11/10 06:06:43;;;;;;;39.80;3.35;;;10.70;99.90;;;;;;5034689;28;20041;-76
2022/11/10 06:09:29;;;;;;;38.58;3.00;;;10.00;99.90;;;;;;5033392;28;20472;-76
2022/11/10 06:12:15;;;;;;;43.38;3.47;;;10.00;99.90;;;;;;5034395;28;20052;-74
2022/11/10 06:15:03;;;;;;;41.15;3.92;;;10.10;99.90;;;;;;5034616;28;20491;-73
2022/11/10 06:17:49;;;;;;;40.95;3.58;;;10.00;99.90;;;;;;5034501;28;20046;-75
2022/11/10 06:20:35;;;;;;;32.75;3.10;;;10.00;99.90;;;;;;5034585;28;20041;-76
2022/11/10 06:23:21;;;;;;;35.35;2.92;;;10.80;99.90;;;;;;5033241;28;20045;-75
2022/11/10 06:26:08;;;;;;;39.80;2.90;;;10.00;99.90;;;;;;5034391;28;20056;-76
2022/11/10 06:28:53;;;;;;;32.63;3.67;;;10.20;99.90;;;;;;5033547;28;20041;-76
2022/11/10 06:31:39;;;;;;;32.88;3.40;;;10.00;99.90;;;;;;5036450;28;20053;-77
2022/11/10 06:34:26;;;;;;;40.95;3.75;;;10.10;99.90;;;;;;5038167;28;20049;-77
2022/11/10 06:37:12;;;;;;;27.30;3.15;;;10.20;99.90;;;;;;5019566;28;20060;-74
2022/11/10 06:39:58;;;;;;;32.78;3.50;;;10.30;99.90;;;;;;5038490;28;20046;-74
2022/11/10 06:42:44;;;;;;;32.35;3.00;;;11.40;99.90;;;;;;5019617;28;20053;-74
2022/11/10 06:45:30;;;;;;;39.40;3.20;;;10.50;99.90;;;;;;5023348;28;20045;-76
2022/11/10 06:48:17;;;;;;;27.25;2.92;;;10.50;99.90;;;;;;5038123;28;20053;-74
2022/11/10 06:51:03;;;;;;;31.65;3.53;;;10.70;99.90;;;;;;5037885;28;20060;-75
2022/11/10 06:53:49;;;;;;;39.50;3.33;;;10.50;99.90;;;;;;5022901;28;20052;-74
2022/11/10 06:56:35;;;;;;;32.78;3.13;;;10.50;99.90;;;;;;5036486;28;20048;-75
2022/11/10 06:59:21;;;;;;;38.83;3.50;;;10.40;99.90;;;;;;5023099;28;20046;-74
2022/11/10 07:02:12;;;;;;;43.90;3.42;;;10.90;99.90;;;;;;5036424;28;20045;-74
2022/11/10 07:04:59;;;;;;;38.63;3.30;;;10.40;99.90;;;;;;5036292;28;20356;-74
2022/11/10 07:07:45;;;;;;;37.55;3.45;;;10.90;99.90;;;;;;5005226;28;20477;-75
2022/11/10 07:10:32;;;;;;;29.80;3.03;;;11.60;99.90;;;;;;5002188;28;20465;-75
2022/11/10 07:13:19;;;;;;;40.22;3.60;;;10.50;99.90;;;;;;5000714;28;20457;-74
2022/11/10 07:16:07;;;;;;;34.33;3.40;;;11.40;99.90;;;;;;5016509;28;20377;-74
2022/11/10 07:18:52;;;;;;;33.88;3.90;;;10.60;99.90;;;;;;5000874;28;20042;-75
2022/11/10 07:21:40;;;;;;;27.35;3.03;;;10.80;99.90;;;;;;5017441;28;20042;-74
2022/11/10 07:24:29;;;;;;;;;;;10.90;99.90;;;;;;5018011;28;20049;-76
2022/11/10 07:27:15;;;;;;;30.33;3.33;;;11.00;99.90;;;;;;5017951;28;20263;-75
2022/11/10 07:30:01;;;;;;;26.60;3.40;;;11.20;99.90;;;;;;5016333;28;20042;-73
2022/11/10 07:32:56;;;;;;;25.23;2.90;;;11.30;99.90;;;;;;5000119;28;20042;-74
2022/11/10 07:35:42;;;;;;;29.35;3.50;;;11.40;99.90;;;;;;5016052;28;20042;-73
2022/11/10 07:38:28;;;;;;;26.45;3.20;;;11.50;99.90;;;;;;5017304;28;20049;-74
2022/11/10 07:41:14;;;;;;;32.38;3.38;;;11.60;99.90;;;;;;5017323;28;20041;-75
2022/11/10 07:44:00;;;;;;;22.65;3.00;;;11.70;99.90;;;;;;5015950;28;20057;-76
2022/11/10 07:46:46;;;;;;;32.42;3.80;;;11.70;99.90;;;;;;5002740;28;20052;-74
2022/11/10 07:49:32;;;;;;;25.17;3.20;;;11.80;99.90;;;;;;5015956;28;20050;-76
2022/11/10 07:52:18;;;;;;;29.10;3.47;;;12.00;99.90;;;;;;5017422;28;20047;-74
2022/11/10 07:55:07;;;;;;;21.10;2.65;;;12.00;99.90;;;;;;5017001;28;20050;-75
2022/11/10 07:57:57;;;;;;;23.45;2.90;;;12.00;99.90;;;;;;5002222;28;20061;-76
2022/11/10 08:00:45;;;;;;;23.77;2.85;;;12.10;99.90;;;;;;5016214;28;20129;-74
2022/11/10 08:03:31;;;;;;;29.23;3.03;;;12.10;99.90;;;;;;5015414;28;20469;-74
2022/11/10 08:06:17;;;;;;;26.20;3.03;;;12.20;99.90;;;;;;5022782;28;20072;-74
2022/11/10 08:09:04;;;;;;;30.08;3.20;;;12.40;99.90;;;;;;5034965;28;20464;-71
2022/11/10 08:11:52;;;;;;;21.65;2.80;;;12.30;99.90;;;;;;5021865;28;20071;-74
2022/11/10 08:14:38;;;;;;;25.60;2.60;;;12.20;99.90;;;;;;5035713;28;20044;-72
2022/11/10 08:17:24;;;;;;;25.40;3.10;;;12.10;99.90;;;;;;5034798;28;20068;-75
2022/11/10 08:20:10;;;;;;;21.10;2.58;;;12.20;99.90;;;;;;5035835;28;20041;-73
2022/11/10 08:23:03;;;;;;;27.38;3.17;;;12.10;99.90;;;;;;5034797;28;20045;-73
2022/11/10 08:25:52;;;;;;;25.65;3.08;;;12.10;99.90;;;;;;5035895;28;20046;-72
2022/11/10 08:28:37;;;;;;;32.92;2.95;;;12.00;99.90;;;;;;5034751;28;20042;-74
2022/11/10 08:31:23;;;;;;;26.48;3.35;;;13.10;99.90;;;;;;5035565;28;20048;-73
2022/11/10 08:34:10;;;;;;;27.38;3.38;;;12.00;99.90;;;;;;5035594;28;20042;-74
2022/11/10 08:36:56;;;;;;;23.70;3.13;;;12.00;99.90;;;;;;5034555;28;20045;-74
2022/11/10 08:39:42;;;;;;;26.10;2.78;;;12.00;99.90;;;;;;5035482;28;20491;-73
2022/11/10 08:42:27;;;;;;;30.52;3.38;;;11.90;99.90;;;;;;5016977;28;20061;-74
2022/11/10 08:45:16;;;;;;;22.38;3.30;;;11.90;99.90;;;;;;5035399;28;20048;-72
2022/11/10 08:48:16;;;;;;;22.02;2.90;;;12.00;99.90;;;;;;5035354;28;20037;-77
2022/11/10 08:51:02;;;;;;;31.60;3.13;;;12.00;99.90;;;;;;5028874;28;20061;-73
2022/11/10 08:53:48;;;;;;;31.52;3.33;;;12.10;99.90;;;;;;5028289;28;20033;-74
2022/11/10 08:56:34;;;;;;;31.13;3.05;;;11.80;99.90;;;;;;5016883;28;20049;-73
2022/11/10 08:59:20;;;;;;;26.33;2.97;;;11.20;99.90;;;;;;5018518;28;20468;-74
2022/11/10 09:02:09;;;;;;;27.58;2.40;;;12.10;99.90;;;;;;5014646;28;20046;-75
2022/11/10 09:04:55;;;;;;;24.95;3.17;;;12.50;99.90;;;;;;5015603;28;20050;-74
2022/11/10 09:07:46;;;;;;;18.75;2.78;;;12.40;99.90;;;;;;5015629;28;20037;-75
2022/11/10 09:10:35;;;;;;;22.17;2.63;;;12.40;99.90;;;;;;5014681;28;20042;-73
2022/11/10 09:13:21;;;;;;;28.17;2.90;;;12.60;99.90;;;;;;5016118;28;20044;-75
2022/11/10 09:16:17;;;;;;;15.13;2.58;;;12.70;99.90;;;;;;5014549;28;20045;-76
2022/11/10 09:19:03;;;;;;;20.75;2.70;;;12.80;99.90;;;;;;5015960;28;20045;-75
2022/11/10 09:21:49;;;;;;;32.30;3.58;;;13.00;99.90;;;;;;4998696;28;20053;-73
2022/11/10 09:24:36;;;;;;;25.33;3.10;;;13.10;99.90;;;;;;5015437;28;20050;-72
2022/11/10 09:27:22;;;;;;;22.23;3.35;;;13.10;99.90;;;;;;5015626;28;20465;-73
2022/11/10 09:30:08;;;;;;;24.67;3.47;;;13.20;99.90;;;;;;4998232;28;20054;-73
2022/11/10 09:33:02;;;;;;;27.77;3.38;;;13.20;99.90;;;;;;5006879;28;20138;-73
2022/11/10 09:35:57;;;;;;;29.65;3.55;;;12.40;99.90;;;;;;5018398;28;20054;-73
2022/11/10 09:38:42;;;;;;;26.83;2.72;;;13.40;99.90;;;;;;5025591;28;20046;-74
2022/11/10 09:41:29;;;;;;;26.73;3.17;;;13.50;99.90;;;;;;5023706;28;20042;-73
2022/11/10 09:44:29;;;;;;;26.33;2.93;;;13.60;99.90;;;;;;5023610;28;20042;-71
2022/11/10 09:47:21;;;;;;;27.55;2.90;;;13.60;99.90;;;;;;5025368;28;20060;-74
2022/11/10 09:50:38;;;;;;;21.08;2.63;;;13.60;99.90;;;;;;5023799;28;20052;-76
2022/11/10 09:53:48;;;;;;;26.23;3.53;;;13.70;99.90;;;;;;5024953;28;20479;-75
2022/11/10 09:56:37;;;;;;;20.02;2.88;;;13.80;99.90;;;;;;4979635;28;20053;-73
2022/11/10 09:59:28;;;;;;;23.95;3.03;;;13.90;99.90;;;;;;5015351;28;20352;-73
2022/11/10 10:02:21;;;;;;;26.20;3.38;;;14.00;99.90;;;;;;5014111;28;20372;-76
2022/11/10 10:05:25;;;;;;;16.10;2.63;;;14.10;99.90;;;;;;4998173;28;20073;-76
2022/11/10 10:08:31;;;;;;;19.52;2.88;;;14.10;99.90;;;;;;5019147;28;20049;-75
2022/11/10 10:11:28;;;;;;;22.63;2.78;;;13.60;99.90;;;;;;5018788;28;20472;-74
2022/11/10 10:14:17;;;;;;;17.10;2.78;;;14.20;99.90;;;;;;5018451;28;20046;-73
2022/11/10 10:17:12;;;;;;;19.65;3.03;;;14.20;99.90;;;;;;5017446;28;20042;-74
2022/11/10 10:20:17;;;;;;;25.15;2.95;;;14.30;99.90;;;;;;5018356;28;20050;-72
2022/11/10 10:23:13;;;;;;;19.35;2.65;;;14.30;99.90;;;;;;5000056;28;20061;-74
2022/11/10 10:26:01;;;;;;;25.35;2.92;;;14.40;99.90;;;;;;5018277;28;20057;-75
2022/11/10 10:28:48;;;;;;;20.88;2.90;;;14.40;99.90;;;;;;5017342;28;20061;-75
2022/11/10 10:31:46;;;;;;;18.92;2.72;;;14.50;99.90;;;;;;5018405;28;20053;-71
2022/11/10 10:34:35;;;;;;;17.35;2.58;;;14.60;99.90;;;;;;5000830;28;20404;-71
2022/11/10 10:37:38;;;;;;;17.73;3.05;;;14.70;99.90;;;;;;5017114;28;20046;-73
2022/11/10 10:40:24;;;;;;;17.55;2.88;;;14.70;99.90;;;;;;5018022;28;20050;-74
2022/11/10 10:43:11;;;;;;;19.95;3.10;;;14.70;99.90;;;;;;4999493;28;20373;-73
2022/11/10 10:46:19;;;;;;;18.17;2.25;;;14.80;99.90;;;;;;5017878;28;20042;-73
2022/11/10 10:49:05;;;;;;;16.10;2.58;;;14.80;99.90;;;;;;4999278;28;20073;-73
2022/11/10 10:52:23;;;;;;;19.42;2.40;;;14.70;99.90;;;;;;4990157;28;20076;-73
2022/11/10 10:55:12;;;;;;;24.40;2.78;;;14.60;99.90;;;;;;5027044;28;20069;-73
2022/11/10 10:58:00;;;;;;;18.98;2.45;;;14.70;99.90;;;;;;5036428;28;20053;-73
2022/11/10 11:01:11;;;;;;;22.15;2.97;;;14.60;99.90;;;;;;5036738;28;20113;-73
2022/11/10 11:03:59;;;;;;;14.77;2.80;;;14.60;99.90;;;;;;5032347;28;20068;-71
2022/11/10 11:06:59;;;;;;;18.20;2.70;;;14.70;99.90;;;;;;5037317;28;20045;-74
2022/11/10 11:09:45;;;;;;;25.00;2.97;;;14.80;99.90;;;;;;5034980;28;20072;-75
2022/11/10 11:12:31;;;;;;;23.67;3.40;;;14.80;99.90;;;;;;5036875;28;20033;-76
2022/11/10 11:15:28;;;;;;;21.98;2.90;;;14.80;99.90;;;;;;5036319;28;20369;-72
2022/11/10 11:18:16;;;;;;;21.10;2.80;;;14.80;99.90;;;;;;5036915;28;20049;-75
2022/11/10 11:21:23;;;;;;;17.65;2.88;;;14.80;99.90;;;;;;5036252;28;20060;-74
2022/11/10 11:24:09;;;;;;;19.65;2.90;;;14.80;99.90;;;;;;5034923;28;20388;-74
2022/11/10 11:27:10;;;;;;;22.23;2.70;;;14.90;99.90;;;;;;5036793;28;20056;-73
2022/11/10 11:30:07;;;;;;;22.30;2.67;;;14.90;99.90;;;;;;5034877;28;20053;-75
2022/11/10 11:33:46;;;;;;;20.38;2.50;;;14.90;99.90;;;;;;5036637;28;20433;-71
2022/11/10 11:36:58;;;;;;;16.92;2.70;;;15.00;99.90;;;;;;4961662;28;20050;-73
2022/11/10 11:40:16;;;;;;;21.42;2.88;;;15.10;99.90;;;;;;5036756;28;20041;-75
2022/11/10 11:43:34;;;;;;;24.23;2.90;;;15.10;99.90;;;;;;5034535;28;20052;-73
2022/11/10 11:46:34;;;;;;;16.13;2.65;;;15.20;99.90;;;;;;5036570;28;20052;-72
2022/11/10 11:49:35;;;;;;;21.50;3.17;;;15.20;99.90;;;;;;5035373;28;20041;-71
2022/11/10 11:52:59;;;;;;;24.00;2.78;;;15.20;99.90;;;;;;5036584;28;20050;-75
2022/11/10 11:56:17;;;;;;;22.30;3.10;;;15.30;99.90;;;;;;5015050;28;20053;-73
2022/11/10 11:59:34;;;;;;;21.17;2.53;;;15.40;99.90;;;;;;5032273;28;20049;-74
2022/11/10 12:02:59;;;;;;;17.98;2.80;;;15.40;99.90;;;;;;5034196;28;20404;-76
2022/11/10 12:06:11;;;;;;;15.30;2.97;;;15.40;99.90;;;;;;5036158;28;20459;-76
2022/11/10 12:09:01;;;;;;;21.10;2.83;;;15.50;99.90;;;;;;5034072;28;20297;-74
2022/11/10 12:12:03;;;;;;;15.82;2.72;;;15.60;99.90;;;;;;5035756;28;20044;-75
2022/11/10 12:15:22;;;;;;;21.50;2.95;;;15.60;99.90;;;;;;5035325;28;20045;-73
2022/11/10 12:18:31;;;;;;;20.55;2.85;;;15.60;99.90;;;;;;5036079;28;20041;-73
2022/11/10 12:21:38;;;;;;;19.83;2.75;;;15.60;99.90;;;;;;5036192;28;20049;-71
2022/11/10 12:24:41;;;;;;;20.38;2.85;;;14.70;99.90;;;;;;5036235;28;20111;-73
2022/11/10 12:27:35;;;;;;;18.58;2.85;;;15.60;99.90;;;;;;5035389;28;20044;-74
2022/11/10 12:30:22;;;;;;;15.20;2.58;;;15.60;99.90;;;;;;5034046;28;20380;-75
2022/11/10 12:33:22;;;;;;;16.02;2.78;;;15.60;99.90;;;;;;5035842;28;20465;-73
2022/11/10 12:36:15;;;;;;;21.58;2.70;;;15.60;99.90;;;;;;5034972;28;20049;-71
2022/11/10 12:39:19;;;;;;;19.33;2.92;;;15.60;99.90;;;;;;5035976;28;20049;-72
2022/11/10 12:42:11;;;;;;;17.60;2.80;;;15.60;99.90;;;;;;5035038;28;20041;-73
2022/11/10 12:45:05;;;;;;;19.67;2.95;;;15.60;99.90;;;;;;5035853;28;20045;-74
2022/11/10 12:47:53;;;;;;;30.17;3.17;;;15.60;99.90;;;;;;5035581;28;20060;-73
2022/11/10 12:51:12;;;;;;;19.20;2.85;;;15.60;99.90;;;;;;5034647;28;20049;-75
2022/11/10 12:53:58;;;;;;;19.25;2.55;;;15.60;99.90;;;;;;5034205;28;20041;-74
2022/11/10 12:56:55;;;;;;;16.45;2.45;;;15.60;99.90;;;;;;5034679;28;20041;-73
2022/11/10 12:59:56;;;;;;;15.18;2.60;;;15.50;99.90;;;;;;5034728;28;20046;-72
2022/11/10 13:02:46;;;;;;;16.15;2.50;;;15.50;99.90;;;;;;5034567;28;20460;-76
2022/11/10 13:05:37;;;;;;;16.88;2.65;;;15.40;99.90;;;;;;5035339;28;20408;-75
2022/11/10 13:08:26;;;;;;;16.58;2.63;;;15.40;99.90;;;;;;5035491;28;20045;-72
2022/11/10 13:11:12;;;;;;;16.55;2.38;;;15.40;99.90;;;;;;5034412;28;20064;-74
2022/11/10 13:14:23;;;;;;;18.67;2.97;;;15.40;99.90;;;;;;5035170;28;20041;-73
2022/11/10 13:17:29;;;;;;;22.13;2.97;;;15.40;99.90;;;;;;5033915;28;20498;-73
2022/11/10 13:20:52;;;;;;;19.73;2.47;;;15.40;99.90;;;;;;5034981;28;20049;-71
2022/11/10 13:23:41;;;;;;;19.42;2.95;;;15.40;99.90;;;;;;4973412;28;20343;-73
2022/11/10 13:26:39;;;;;;;18.13;2.88;;;15.40;99.90;;;;;;5035219;28;20471;-73
2022/11/10 13:29:54;;;;;;;15.48;2.70;;;15.30;99.90;;;;;;5032973;28;20054;-74
2022/11/10 13:32:42;;;;;;;21.58;2.70;;;15.30;99.90;;;;;;5034805;28;20037;-72
2022/11/10 13:35:28;;;;;;;19.88;3.17;;;15.20;99.90;;;;;;5033558;28;20045;-75
2022/11/10 13:38:33;;;;;;;19.55;2.72;;;15.20;99.90;;;;;;5035502;28;20045;-72
2022/11/10 13:41:22;;;;;;;18.50;2.88;;;15.30;99.90;;;;;;5048320;28;20053;-75
2022/11/10 13:44:23;;;;;;;19.52;3.00;;;15.30;99.90;;;;;;5033426;28;20050;-72
2022/11/10 13:47:09;;;;;;;19.20;3.28;;;15.30;99.90;;;;;;5034169;28;20061;-74
2022/11/10 13:50:23;;;;;;;19.92;3.05;;;15.30;99.90;;;;;;5033539;28;20067;-74
2022/11/10 13:53:31;;;;;;;13.75;2.20;;;15.30;99.90;;;;;;5034821;28;20045;-73
2022/11/10 13:56:49;;;;;;;20.15;2.90;;;15.30;99.90;;;;;;5013790;28;20034;-74
2022/11/10 13:59:48;;;;;;;14.00;2.47;;;15.30;99.90;;;;;;5014900;28;20464;-75
2022/11/10 14:02:46;;;;;;;21.17;3.25;;;15.20;99.90;;;;;;5013590;28;20046;-75
2022/11/10 14:05:37;;;;;;;20.95;3.00;;;15.20;99.90;;;;;;5014795;28;20468;-73
2022/11/10 14:08:27;;;;;;;18.90;2.90;;;15.20;99.90;;;;;;5014570;28;20408;-72
2022/11/10 14:11:23;;;;;;;20.40;2.90;;;15.10;99.90;;;;;;5014649;28;20058;-71
2022/11/10 14:14:23;;;;;;;15.48;2.60;;;15.10;99.90;;;;;;5014862;28;20057;-73
2022/11/10 14:17:41;;;;;;;20.33;2.90;;;15.00;99.90;;;;;;5013614;28;20365;-72
2022/11/10 14:20:34;;;;;;;20.17;2.90;;;15.00;99.90;;;;;;5000067;28;20056;-74
2022/11/10 14:23:55;;;;;;;14.55;2.53;;;14.90;99.90;;;;;;4996121;28;20287;-74
2022/11/10 14:26:50;;;;;;;18.65;3.15;;;14.90;99.90;;;;;;5014965;28;20057;-76
2022/11/10 14:29:38;;;;;;;24.65;3.60;;;14.90;99.90;;;;;;5018402;28;20041;-74
2022/11/10 14:32:25;;;;;;;15.85;2.65;;;14.90;99.90;;;;;;5034059;28;20052;-76
2022/11/10 14:35:24;;;;;;;17.48;2.60;;;14.80;99.90;;;;;;5034729;28;20049;-73
2022/11/10 14:38:28;;;;;;;20.88;2.55;;;14.80;99.90;;;;;;5034108;28;20048;-74
2022/11/10 14:41:23;;;;;;;26.70;3.05;;;14.80;99.90;;;;;;5034182;28;20038;-73
2022/11/10 14:44:22;;;;;;;22.92;2.92;;;14.90;99.90;;;;;;5033051;28;20046;-74
2022/11/10 14:47:14;;;;;;;20.80;2.97;;;14.80;99.90;;;;;;5034145;28;20045;-74
2022/11/10 14:50:17;;;;;;;26.65;3.28;;;14.80;99.90;;;;;;5033042;28;20396;-72
2022/11/10 14:53:08;;;;;;;23.65;3.03;;;14.90;99.90;;;;;;5037310;28;20037;-74